Time;durP1;ratioP1;P1;durP2;ratioP2;P2;SDS_P1;SDS_P2;PMS_P1;PMS_P2;Temp;Humidity;BMP_temperature;BMP_pressure;BME280_temperature;BME280_humidity;BME280_pressure;Samples;Min_cycle;Max_cycle;Signal;HPM_P1;HPM_P2
2023/01/02 00:01:46;;;;;;;6.07;4.90;;;;;;;8.77;100.00;100389.00;5066339;28;20189;-75
2023/01/02 00:04:11;;;;;;;6.67;5.57;;;;;;;8.76;100.00;100392.44;5063875;28;20210;-75
2023/01/02 00:06:38;;;;;;;8.00;5.77;;;;;;;8.77;100.00;100381.25;5058539;28;20201;-76
2023/01/02 00:09:04;;;;;;;6.33;5.67;;;;;;;8.75;100.00;100382.97;5064287;28;21036;-75
2023/01/02 00:11:30;;;;;;;6.53;5.83;;;;;;;8.77;100.00;100376.09;5065299;28;20189;-75
2023/01/02 00:13:55;;;;;;;7.87;6.03;;;;;;;8.78;100.00;100377.81;5062867;28;20618;-75
2023/01/02 00:16:21;;;;;;;7.20;6.40;;;;;;;8.81;100.00;100377.84;5055561;28;20196;-75
2023/01/02 00:18:46;;;;;;;6.63;5.93;;;;;;;8.85;100.00;100370.94;5063971;28;20694;-76
2023/01/02 00:21:12;;;;;;;8.53;5.30;;;;;;;8.90;100.00;100371.81;5062570;28;20223;-75
2023/01/02 00:23:37;;;;;;;7.37;5.67;;;;;;;8.95;100.00;100367.47;5064350;28;20201;-75
2023/01/02 00:26:03;;;;;;;7.23;5.77;;;;;;;9.02;100.00;100377.81;5060727;28;20237;-74
2023/01/02 00:28:29;;;;;;;7.03;5.33;;;;;;;9.06;100.00;100384.69;5062532;28;20286;-75
2023/01/02 00:30:54;;;;;;;7.67;5.80;;;;;;;9.08;100.00;100375.22;5062405;28;20285;-74
2023/01/02 00:33:19;;;;;;;6.17;5.37;;;;;;;9.09;100.00;100369.19;5059422;28;20563;-77
2023/01/02 00:35:45;;;;;;;5.97;5.47;;;;;;;9.09;100.00;100364.91;5063967;28;20268;-75
2023/01/02 00:38:10;;;;;;;6.73;5.23;;;;;;;9.11;100.00;100349.38;5058770;28;20214;-74
2023/01/02 00:40:36;;;;;;;7.60;5.67;;;;;;;9.12;100.00;100341.66;5060818;28;20206;-75
2023/01/02 00:43:01;;;;;;;7.07;5.43;;;;;;;9.12;100.00;100336.50;5054471;28;20198;-75
2023/01/02 00:45:26;;;;;;;6.37;4.83;;;;;;;9.12;100.00;100344.25;5066530;28;20190;-75
2023/01/02 00:47:52;;;;;;;6.90;5.03;;;;;;;9.15;100.00;100354.53;5073919;28;20201;-75
2023/01/02 00:50:18;;;;;;;6.90;5.20;;;;;;;9.15;100.00;100351.97;5067171;28;20924;-75
2023/01/02 00:52:43;;;;;;;6.07;5.23;;;;;;;9.15;100.00;100345.94;5067640;28;20214;-75
2023/01/02 00:55:09;;;;;;;7.10;5.17;;;;;;;9.13;100.00;100335.63;5064975;28;20644;-76
2023/01/02 00:57:34;;;;;;;6.40;4.97;;;;;;;9.14;100.00;100334.78;5071200;28;20641;-76
2023/01/02 00:59:59;;;;;;;5.27;4.77;;;;;;;9.17;100.00;100333.91;5064340;28;20174;-75
2023/01/02 01:02:25;;;;;;;4.63;4.23;;;;;;;9.18;100.00;100327.88;5068460;28;20170;-74
2023/01/02 01:04:50;;;;;;;5.57;5.00;;;;;;;9.19;100.00;100331.31;5072518;28;20252;-75
2023/01/02 01:07:16;;;;;;;5.30;4.80;;;;;;;9.20;100.00;100340.78;5066593;28;20882;-75
2023/01/02 01:09:41;;;;;;;5.37;4.37;;;;;;;9.19;100.00;100332.19;5071084;28;20204;-74
2023/01/02 01:12:06;;;;;;;5.30;4.50;;;;;;;9.22;100.00;100333.88;5072662;28;20234;-74
2023/01/02 01:14:32;;;;;;;6.30;4.60;;;;;;;9.23;100.00;100341.63;5084165;28;20182;-73
2023/01/02 01:16:58;;;;;;;5.07;4.57;;;;;;;9.25;100.00;100328.72;5082277;28;20197;-75
2023/01/02 01:19:23;;;;;;;5.30;4.60;;;;;;;9.25;100.00;100341.63;5071683;28;20193;-75
2023/01/02 01:21:49;;;;;;;4.70;4.30;;;;;;;9.26;100.00;100330.44;5066212;28;20198;-75
2023/01/02 01:24:14;;;;;;;5.13;4.63;;;;;;;9.27;100.00;100332.16;5064704;28;20198;-75
2023/01/02 01:26:39;;;;;;;5.23;4.33;;;;;;;9.26;100.00;100336.44;5064083;28;20217;-75
2023/01/02 01:29:05;;;;;;;6.43;4.93;;;;;;;9.24;100.00;100337.31;5061373;28;20725;-76
2023/01/02 01:31:30;;;;;;;5.13;4.53;;;;;;;9.21;100.00;100334.75;5070051;28;20198;-75
2023/01/02 01:33:55;;;;;;;6.63;5.13;;;;;;;9.18;100.00;100334.75;5062789;28;20182;-74
2023/01/02 01:36:23;;;;;;;5.27;4.63;;;;;;;9.15;100.00;100330.47;5065935;28;20803;-76
2023/01/02 01:38:49;;;;;;;5.17;4.40;;;;;;;9.10;100.00;100327.91;5064440;28;20211;-75
2023/01/02 01:41:22;;;;;;;5.70;4.43;;;;;;;9.07;100.00;100338.22;5068322;28;20185;-75
2023/01/02 01:43:54;;;;;;;5.07;4.50;;;;;;;9.05;100.00;100337.34;5061068;28;20626;-75
2023/01/02 01:46:42;;;;;;;4.87;4.30;;;;;;;9.05;100.00;100323.59;5064041;28;20194;-74
2023/01/02 01:49:15;;;;;;;4.93;4.50;;;;;;;9.06;100.00;100325.31;5064310;28;20229;-74
2023/01/02 01:51:49;;;;;;;5.93;4.40;;;;;;;9.07;100.00;100314.13;5063397;28;20305;-74
2023/01/02 01:54:18;;;;;;;5.13;4.63;;;;;;;9.07;100.00;100312.41;5063623;28;20174;-75
2023/01/02 01:56:51;;;;;;;5.17;4.00;;;;;;;9.08;100.00;100303.78;5062150;28;20217;-75
2023/01/02 01:59:18;;;;;;;5.50;4.40;;;;;;;9.10;100.00;100302.06;5065275;28;20272;-75
2023/01/02 02:01:45;;;;;;;5.70;4.80;;;;;;;9.10;100.00;100306.34;5060890;28;20190;-75
2023/01/02 02:04:11;;;;;;;5.80;4.70;;;;;;;9.10;100.00;100304.66;5056859;28;20198;-75
2023/01/02 02:06:37;;;;;;;5.10;4.60;;;;;;;9.09;100.00;100307.22;5055201;28;20205;-75
2023/01/02 02:09:17;;;;;;;4.97;4.47;;;;;;;9.08;100.00;100303.78;5065215;28;20764;-75
2023/01/02 02:11:44;;;;;;;5.13;4.60;;;;;;;9.05;100.00;100306.38;5067864;28;21164;-75
2023/01/02 02:14:09;;;;;;;5.43;4.70;;;;;;;9.00;100.00;100300.34;5064156;28;20182;-75
2023/01/02 02:17:19;;;;;;;6.37;4.70;;;;;;;8.97;100.00;100287.47;5064136;28;20188;-74
2023/01/02 02:20:04;;;;;;;6.07;4.80;;;;;;;8.94;100.00;100295.22;5060923;28;20199;-75
2023/01/02 02:22:45;;;;;;;5.83;4.50;;;;;;;8.93;100.00;100285.75;5060454;28;20193;-75
2023/01/02 02:25:16;;;;;;;4.87;4.13;;;;;;;8.92;100.00;100290.09;5062528;28;20190;-74
2023/01/02 02:27:53;;;;;;;5.17;4.57;;;;;;;8.92;100.00;100284.03;5064463;28;20214;-73
2023/01/02 02:30:19;;;;;;;5.23;4.70;;;;;;;8.92;100.00;100281.47;5063705;28;20282;-75
2023/01/02 02:32:59;;;;;;;6.17;4.97;;;;;;;8.94;100.00;100277.16;5067041;28;20283;-75
2023/01/02 02:35:36;;;;;;;5.53;4.93;;;;;;;8.94;100.00;100278.00;5064406;28;20190;-76
2023/01/02 02:38:18;;;;;;;5.60;4.60;;;;;;;8.94;100.00;100277.16;5062229;28;20228;-74
2023/01/02 02:41:13;;;;;;;5.30;4.80;;;;;;;8.95;100.00;100273.72;5061557;28;20218;-75
2023/01/02 02:43:54;;;;;;;5.80;4.67;;;;;;;8.96;100.00;100271.13;5063799;28;20214;-74
2023/01/02 02:46:31;;;;;;;5.17;4.67;;;;;;;8.99;100.00;100283.19;5065559;28;20197;-75
2023/01/02 02:49:10;;;;;;;5.63;5.13;;;;;;;8.96;100.00;100276.28;5069409;28;20232;-75
2023/01/02 02:51:59;;;;;;;5.20;4.70;;;;;;;8.93;100.00;100272.84;5061535;28;20628;-75
2023/01/02 02:54:35;;;;;;;5.87;4.97;;;;;;;8.91;100.00;100274.59;5060523;28;20242;-75
2023/01/02 02:57:02;;;;;;;5.37;4.63;;;;;;;8.90;100.00;100267.69;5058565;28;20195;-75
2023/01/02 02:59:28;;;;;;;5.53;4.60;;;;;;;8.89;100.00;100268.56;5064517;28;20273;-74
2023/01/02 03:01:53;;;;;;;4.63;4.23;;;;;;;8.89;100.00;100273.72;5065379;28;20185;-76
2023/01/02 03:04:21;;;;;;;4.63;4.20;;;;;;;8.87;100.00;100271.16;5061672;28;20271;-74
2023/01/02 03:07:25;;;;;;;6.27;5.03;;;;;;;8.87;100.00;100271.16;5061828;28;20673;-76
2023/01/02 03:10:05;;;;;;;5.27;4.57;;;;;;;8.83;100.00;100261.69;5059813;28;20253;-76
2023/01/02 03:12:47;;;;;;;6.70;4.50;;;;;;;8.80;100.00;100261.69;5060134;28;20197;-76
2023/01/02 03:15:18;;;;;;;6.37;4.40;;;;;;;8.78;100.00;100264.28;5067479;28;20190;-77
2023/01/02 03:18:00;;;;;;;5.07;4.57;;;;;;;8.75;100.00;100272.03;5064351;28;20293;-75
2023/01/02 03:20:39;;;;;;;5.27;4.77;;;;;;;8.74;100.00;100272.03;5058625;28;20186;-76
2023/01/02 03:23:10;;;;;;;4.90;4.50;;;;;;;8.72;100.00;100264.28;5065140;28;20193;-74
2023/01/02 03:25:36;;;;;;;5.40;4.90;;;;;;;8.69;100.00;100267.75;5068660;28;20270;-74
2023/01/02 03:28:05;;;;;;;6.53;5.57;;;;;;;8.69;100.00;100277.22;5061653;28;20240;-76
2023/01/02 03:30:34;;;;;;;5.93;5.33;;;;;;;8.67;100.00;100276.34;5064622;28;20748;-74
2023/01/02 03:33:14;;;;;;;6.93;5.30;;;;;;;8.64;100.00;100273.78;5066636;28;20190;-76
2023/01/02 03:35:43;;;;;;;6.97;4.90;;;;;;;8.63;100.00;100277.22;5080274;28;20186;-76
2023/01/02 03:38:15;;;;;;;6.53;5.33;;;;;;;8.62;100.00;100276.34;5084019;28;20555;-74
2023/01/02 03:40:46;;;;;;;5.80;5.10;;;;;;;8.59;100.00;100278.06;5066123;28;20186;-73
2023/01/02 03:43:17;;;;;;;6.73;5.10;;;;;;;8.56;100.00;100278.94;5061633;28;20199;-74
2023/01/02 03:45:53;;;;;;;5.67;5.07;;;;;;;8.53;100.00;100274.66;5058779;28;20285;-76
2023/01/02 03:48:30;;;;;;;5.20;4.70;;;;;;;8.52;100.00;100272.06;5062114;28;20270;-74
2023/01/02 03:50:58;;;;;;;5.80;4.50;;;;;;;8.51;100.00;100267.75;5064658;28;20216;-74
2023/01/02 03:53:24;;;;;;;5.47;4.90;;;;;;;8.52;100.00;100267.78;5060830;28;20194;-77
2023/01/02 03:56:26;;;;;;;5.30;4.33;;;;;;;8.54;100.00;100275.50;5062772;28;20193;-74
2023/01/02 03:59:10;;;;;;;4.47;3.70;;;;;;;8.58;100.00;100276.34;5063832;28;20775;-76
2023/01/02 04:01:46;;;;;;;6.83;4.50;;;;;;;8.61;100.00;100284.97;5060472;28;20193;-76
2023/01/02 04:04:20;;;;;;;5.23;4.27;;;;;;;8.63;100.00;100280.63;5057684;28;20308;-74
2023/01/02 04:06:51;;;;;;;4.17;3.77;;;;;;;8.66;100.00;100279.78;5059783;28;20191;-76
2023/01/02 04:09:20;;;;;;;4.83;4.17;;;;;;;8.69;100.00;100272.06;5058065;28;20178;-73
2023/01/02 04:11:50;;;;;;;4.37;3.97;;;;;;;8.71;100.00;100275.47;5059039;28;20301;-76
2023/01/02 04:14:20;;;;;;;4.60;4.20;;;;;;;8.73;100.00;100272.91;5055683;28;20236;-74
2023/01/02 04:16:49;;;;;;;3.97;3.57;;;;;;;8.71;100.00;100272.03;5066905;28;20188;-76
2023/01/02 04:19:25;;;;;;;5.40;3.60;;;;;;;8.69;100.00;100260.00;5062513;28;20273;-74
2023/01/02 04:21:56;;;;;;;4.00;3.47;;;;;;;8.68;100.00;100257.44;5058988;28;20185;-75
2023/01/02 04:24:32;;;;;;;4.10;3.70;;;;;;;8.68;100.00;100257.44;5060889;28;20222;-76
2023/01/02 04:27:02;;;;;;;3.63;3.27;;;;;;;8.68;100.00;100254.84;5059100;28;20277;-74
2023/01/02 04:29:28;;;;;;;5.40;3.40;;;;;;;8.67;100.00;100263.47;5063373;28;20231;-74
2023/01/02 04:31:57;;;;;;;3.43;2.97;;;;;;;8.66;100.00;100264.31;5058103;28;20193;-75
2023/01/02 04:34:25;;;;;;;6.17;3.30;;;;;;;8.61;100.00;100256.59;5061950;28;20626;-74
2023/01/02 04:36:50;;;;;;;4.17;3.30;;;;;;;8.58;100.00;100266.03;5058359;28;20643;-74
2023/01/02 04:39:19;;;;;;;4.43;3.80;;;;;;;8.52;100.00;100267.78;5064582;28;20250;-74
2023/01/02 04:41:44;;;;;;;6.13;3.60;;;;;;;8.48;100.00;100267.75;5060112;28;20193;-75
2023/01/02 04:44:09;;;;;;;6.10;4.13;;;;;;;8.45;100.00;100270.31;5061972;28;20223;-74
2023/01/02 04:46:34;;;;;;;4.33;3.83;;;;;;;8.39;100.00;100271.19;5064904;28;20182;-74
2023/01/02 04:49:00;;;;;;;4.73;3.83;;;;;;;8.37;100.00;100268.59;5061932;28;20216;-75
2023/01/02 04:51:25;;;;;;;4.80;3.60;;;;;;;8.35;100.00;100262.56;5057678;28;20196;-75
2023/01/02 04:53:51;;;;;;;4.20;3.70;;;;;;;8.33;100.00;100268.59;5061813;28;20182;-75
2023/01/02 04:56:17;;;;;;;4.50;4.10;;;;;;;8.27;100.00;100264.31;5059010;28;20190;-74
2023/01/02 04:58:44;;;;;;;4.90;4.10;;;;;;;8.24;100.00;100272.03;5061199;28;20263;-77
2023/01/02 05:01:15;;;;;;;4.87;3.97;;;;;;;8.18;100.00;100265.16;5064144;28;20182;-75
2023/01/02 05:03:43;;;;;;;4.40;3.60;;;;;;;8.16;100.00;100268.59;5061382;28;20255;-76
2023/01/02 05:06:09;;;;;;;5.30;3.93;;;;;;;8.14;100.00;100270.31;5064109;28;20631;-76
2023/01/02 05:08:35;;;;;;;3.67;3.30;;;;;;;8.14;100.00;100272.91;5063612;28;20205;-74
2023/01/02 05:11:10;;;;;;;5.23;3.67;;;;;;;8.13;100.00;100273.75;5061521;28;20190;-75
2023/01/02 05:13:36;;;;;;;4.50;3.60;;;;;;;8.11;100.00;100278.88;5061801;28;20184;-75
2023/01/02 05:16:02;;;;;;;5.87;2.87;;;;;;;8.09;100.00;100276.31;5061043;28;20190;-74
2023/01/02 05:18:29;;;;;;;4.03;3.20;;;;;;;8.09;100.00;100281.47;5062908;28;20220;-75
2023/01/02 05:23:47;;;;;;;3.43;2.90;;;;;;;8.08;100.00;100277.19;5061306;28;20186;-76
2023/01/02 05:23:57;;;;;;;4.23;3.20;;;;;;;8.05;100.00;100279.75;5072881;28;20267;-75
2023/01/02 05:26:23;;;;;;;3.50;3.20;;;;;;;8.04;100.00;100292.63;5060535;28;20208;-75
2023/01/02 05:28:51;;;;;;;3.53;3.23;;;;;;;8.03;100.00;100296.06;5059797;28;20202;-75
2023/01/02 05:31:16;;;;;;;4.87;3.77;;;;;;;8.00;100.00;100291.78;5060480;28;20186;-75
2023/01/02 05:33:41;;;;;;;4.03;3.63;;;;;;;7.99;100.00;100305.53;5060501;28;20676;-75
2023/01/02 05:36:07;;;;;;;5.27;3.67;;;;;;;8.00;100.00;100311.53;5062801;28;20193;-76
2023/01/02 05:38:33;;;;;;;4.17;3.73;;;;;;;8.00;100.00;100298.63;5061065;28;20999;-75
2023/01/02 05:41:03;;;;;;;4.50;3.33;;;;;;;7.99;100.00;100308.09;5064619;28;20276;-76
2023/01/02 05:43:34;;;;;;;3.93;3.50;;;;;;;7.99;100.00;100302.06;5060610;28;20852;-75
2023/01/02 05:46:11;;;;;;;5.17;3.87;;;;;;;7.98;100.00;100308.97;5066355;28;20189;-75
2023/01/02 05:48:37;;;;;;;4.13;3.43;;;;;;;7.95;100.00;100298.63;5062845;28;20329;-75
2023/01/02 05:51:04;;;;;;;3.73;3.33;;;;;;;7.94;100.00;100302.06;5061875;28;20201;-75
2023/01/02 05:53:29;;;;;;;4.23;3.83;;;;;;;7.91;100.00;100297.78;5064525;28;20226;-75
2023/01/02 05:56:09;;;;;;;5.40;3.90;;;;;;;7.91;100.00;100302.06;5084795;28;20186;-74
2023/01/02 05:58:36;;;;;;;4.03;3.60;;;;;;;7.90;100.00;100316.66;5076314;28;20219;-76
2023/01/02 06:01:07;;;;;;;4.57;3.70;;;;;;;7.90;100.00;100313.22;5061234;28;20281;-76
2023/01/02 06:03:32;;;;;;;5.73;4.10;;;;;;;7.91;100.00;100322.66;5063373;28;20228;-75
2023/01/02 06:06:05;;;;;;;4.13;3.63;;;;;;;7.92;100.00;100326.97;5063096;28;20729;-75
2023/01/02 06:08:30;;;;;;;4.23;3.50;;;;;;;7.90;100.00;100326.97;5062127;28;20212;-76
2023/01/02 06:10:56;;;;;;;4.00;3.50;;;;;;;7.93;100.00;100336.44;5059169;28;20190;-75
2023/01/02 06:13:21;;;;;;;4.30;3.90;;;;;;;7.94;100.00;100341.56;5059628;28;20195;-75
2023/01/02 06:15:46;;;;;;;4.17;3.13;;;;;;;7.97;100.00;100343.31;5063633;28;20194;-75
2023/01/02 06:18:12;;;;;;;4.73;3.43;;;;;;;8.01;100.00;100357.06;5061116;28;20304;-76
2023/01/02 06:20:37;;;;;;;4.03;3.13;;;;;;;8.04;100.00;100359.66;5062218;28;20301;-75
2023/01/02 06:23:02;;;;;;;3.77;3.20;;;;;;;8.09;100.00;100361.38;5060360;28;20190;-75
2023/01/02 06:25:27;;;;;;;3.63;3.10;;;;;;;8.17;100.00;100363.09;5061742;28;20707;-75
2023/01/02 06:27:53;;;;;;;3.50;3.10;;;;;;;8.24;100.00;100362.28;5063063;28;20260;-75
2023/01/02 06:30:18;;;;;;;3.90;3.20;;;;;;;8.33;100.00;100366.59;5061522;28;20201;-75
2023/01/02 06:32:43;;;;;;;3.10;2.80;;;;;;;8.41;100.00;100366.59;5061173;28;20229;-76
2023/01/02 06:35:09;;;;;;;4.47;3.10;;;;;;;8.48;100.00;100369.22;5066197;28;20642;-74
2023/01/02 06:37:35;;;;;;;5.73;2.90;;;;;;;8.54;100.00;100366.66;5062420;28;20204;-75
2023/01/02 06:40:00;;;;;;;3.63;2.80;;;;;;;8.59;100.00;100366.66;5060931;28;20242;-75
2023/01/02 06:42:25;;;;;;;4.80;3.00;;;;;;;8.65;100.00;100370.94;5060315;28;20311;-76
2023/01/02 06:44:50;;;;;;;5.47;2.60;;;;;;;8.72;100.00;100367.50;5062754;28;20248;-76
2023/01/02 06:47:16;;;;;;;4.80;2.60;;;;;;;8.81;100.00;100369.22;5056367;28;20724;-75
2023/01/02 06:49:41;;;;;;;2.43;2.10;;;;;;;8.90;100.00;100376.09;5067448;28;20227;-75
2023/01/02 06:52:06;;;;;;;2.90;2.20;;;;;;;8.97;100.00;100381.25;5063789;28;20604;-75
2023/01/02 06:56:57;;;;;;;2.97;2.50;;;;;;;9.06;100.00;100395.88;5062025;27;1246283;-76
2023/01/02 06:59:22;;;;;;;3.80;2.60;;;;;;;9.09;100.00;100392.41;5064019;28;20198;-76
2023/01/02 07:01:47;;;;;;;3.23;2.43;;;;;;;9.11;100.00;100401.03;5068459;28;20194;-76
2023/01/02 07:04:16;;;;;;;3.97;2.50;;;;;;;9.12;100.00;100395.88;5070842;28;20214;-78
2023/01/02 07:06:41;;;;;;;2.23;2.00;;;;;;;9.13;100.00;100395.03;5066383;28;20579;-74
2023/01/02 07:09:07;;;;;;;3.40;2.10;;;;;;;9.14;100.00;100396.75;5071887;28;20215;-74
2023/01/02 07:11:32;;;;;;;4.33;2.30;;;;;;;9.15;100.00;100388.09;5069180;28;20194;-77
2023/01/02 07:13:57;;;;;;;3.63;2.40;;;;;;;9.17;100.00;100393.28;5067492;28;20224;-74
2023/01/02 07:16:23;;;;;;;2.43;2.00;;;;;;;9.19;100.00;100394.16;5070306;28;20210;-77
2023/01/02 07:18:51;;;;;;;2.70;2.30;;;;;;;9.22;100.00;100401.03;5066669;28;20305;-74
2023/01/02 07:21:17;;;;;;;2.50;2.27;;;;;;;9.25;100.00;100395.84;5063448;28;20207;-74
2023/01/02 07:23:42;;;;;;;4.40;2.20;;;;;;;9.28;100.00;100396.69;5068400;28;20754;-76
2023/01/02 07:26:08;;;;;;;2.70;2.20;;;;;;;9.33;100.00;100401.84;5069188;28;20200;-76
2023/01/02 07:28:34;;;;;;;3.00;2.70;;;;;;;9.38;100.00;100404.41;5068760;28;20309;-76
2023/01/02 07:31:02;;;;;;;4.87;3.33;;;;;;;9.44;100.00;100399.25;5031816;28;20224;-75
2023/01/02 07:33:29;;;;;;;3.37;3.07;;;;;;;9.51;100.00;100405.25;5003038;28;20189;-74
2023/01/02 07:36:06;;;;;;;5.23;3.70;;;;;;;9.58;100.00;100414.72;5006984;28;20333;-76
2023/01/02 07:38:32;;;;;;;4.27;3.30;;;;;;;9.63;100.00;100412.97;5009709;28;20213;-75
2023/01/02 07:40:58;;;;;;;5.27;4.00;;;;;;;9.70;100.00;100413.81;5010113;28;20189;-75
2023/01/02 07:43:23;;;;;;;3.63;3.33;;;;;;;9.73;100.00;100417.28;5004441;28;20238;-74
2023/01/02 07:45:49;;;;;;;3.53;3.23;;;;;;;9.77;100.00;100415.53;5007489;28;20278;-75
2023/01/02 07:48:14;;;;;;;3.40;3.10;;;;;;;9.79;100.00;100416.38;5008948;28;20213;-75
2023/01/02 07:50:40;;;;;;;4.53;2.87;;;;;;;9.81;100.00;100418.94;5006844;28;20629;-75
2023/01/02 07:53:05;;;;;;;3.33;2.77;;;;;;;9.84;100.00;100422.38;5004239;28;20548;-75
2023/01/02 07:55:31;;;;;;;3.03;2.73;;;;;;;9.87;100.00;100427.53;5010552;28;20216;-75
2023/01/02 07:57:56;;;;;;;2.77;2.50;;;;;;;9.91;100.00;100425.78;5011519;28;20272;-75
2023/01/02 08:00:21;;;;;;;3.10;2.10;;;;;;;9.95;100.00;100434.41;5016173;28;20192;-75
2023/01/02 08:02:51;;;;;;;2.37;2.00;;;;;;;9.99;100.00;100447.31;5006506;28;20283;-74
2023/01/02 08:05:17;;;;;;;3.10;2.20;;;;;;;10.02;100.00;100442.16;5002541;28;20182;-73
2023/01/02 08:07:43;;;;;;;2.93;1.90;;;;;;;10.04;100.00;100442.13;4993189;28;20206;-76
2023/01/02 08:10:10;;;;;;;3.13;2.03;;;;;;;10.07;100.00;100448.13;4989983;28;20190;-75
2023/01/02 08:12:35;;;;;;;3.30;1.97;;;;;;;10.10;99.75;100447.28;5000299;28;20217;-73
2023/01/02 08:15:00;;;;;;;2.30;2.00;;;;;;;10.14;99.66;100451.56;5015821;28;20215;-74
2023/01/02 08:17:26;;;;;;;2.63;1.70;;;;;;;10.21;99.51;100449.78;4999410;28;20568;-76
2023/01/02 08:19:51;;;;;;;1.63;1.53;;;;;;;10.26;99.04;100452.38;4995178;28;20304;-74
2023/01/02 08:22:16;;;;;;;3.53;1.80;;;;;;;10.32;98.52;100458.38;4986532;28;20185;-75
2023/01/02 08:24:42;;;;;;;2.40;1.90;;;;;;;10.40;98.67;100470.44;4993353;28;20266;-75
2023/01/02 08:27:07;;;;;;;2.43;1.93;;;;;;;10.44;98.36;100459.22;4992287;28;20714;-75
2023/01/02 08:29:33;;;;;;;2.50;1.53;;;;;;;10.52;97.99;100471.25;4996951;28;20184;-76
2023/01/02 08:31:58;;;;;;;2.33;1.80;;;;;;;10.60;97.73;100470.31;4990302;28;20199;-75
2023/01/02 08:34:24;;;;;;;1.67;1.50;;;;;;;10.68;97.41;100468.56;4995186;28;20180;-76
2023/01/02 08:36:49;;;;;;;2.30;1.50;;;;;;;10.77;97.03;100478.84;4991408;28;22279;-75
2023/01/02 08:39:14;;;;;;;2.57;1.70;;;;;;;10.89;96.64;100479.66;4990251;28;20191;-75
2023/01/02 08:41:40;;;;;;;3.43;1.90;;;;;;;11.00;96.50;100490.78;4991698;28;20228;-76
2023/01/02 08:44:06;;;;;;;2.93;1.73;;;;;;;11.12;95.94;100485.50;4991477;28;20193;-74
2023/01/02 08:46:33;;;;;;;2.53;1.47;;;;;;;11.25;95.37;100491.44;4990388;28;20183;-75
2023/01/02 08:48:58;;;;;;;1.87;1.50;;;;;;;11.38;95.38;100502.53;4989692;28;20216;-75
2023/01/02 08:51:25;;;;;;;2.00;1.70;;;;;;;11.55;94.61;100502.41;4989741;28;20187;-77
2023/01/02 08:53:50;;;;;;;2.60;1.53;;;;;;;11.73;94.17;100503.06;4999422;28;20743;-75
2023/01/02 08:56:24;;;;;;;2.13;1.73;;;;;;;11.88;93.66;100513.28;4990571;28;20218;-76
2023/01/02 08:58:54;;;;;;;2.43;1.40;;;;;;;11.98;93.25;100514.06;5000682;28;20748;-77
2023/01/02 09:01:20;;;;;;;1.87;1.50;;;;;;;12.06;92.75;100511.41;4994198;28;20193;-75
2023/01/02 09:03:45;;;;;;;2.67;1.70;;;;;;;12.11;92.96;100519.13;4991346;28;20216;-75
2023/01/02 09:06:11;;;;;;;1.80;1.53;;;;;;;12.13;92.67;100523.44;4992153;28;20223;-76
2023/01/02 09:08:36;;;;;;;2.10;1.83;;;;;;;12.13;92.53;100520.84;4992484;28;20218;-76
2023/01/02 09:11:18;;;;;;;6.27;5.50;;;;;;;12.15;92.36;100531.19;4990182;28;20583;-75
2023/01/02 09:13:44;;;;;;;20.97;18.47;;;;;;;12.17;92.26;100532.03;4995602;28;20196;-75
2023/01/02 09:16:10;;;;;;;27.70;22.57;;;;;;;12.18;92.46;100544.13;4991132;28;20204;-76
2023/01/02 09:18:36;;;;;;;25.23;21.43;;;;;;;12.20;92.53;100548.41;4998698;28;20210;-74
2023/01/02 09:21:02;;;;;;;24.13;19.67;;;;;;;12.20;92.29;100555.34;4988565;28;20569;-76
2023/01/02 09:23:28;;;;;;;18.13;16.30;;;;;;;12.22;92.14;100557.91;4988392;28;20237;-76
2023/01/02 09:26:04;;;;;;;15.57;14.07;;;;;;;12.26;92.35;100565.66;4986556;28;20187;-79
2023/01/02 09:28:32;;;;;;;13.97;12.57;;;;;;;12.29;92.37;100565.63;4986153;28;20206;-76
2023/01/02 09:30:58;;;;;;;11.53;10.50;;;;;;;12.31;92.40;100561.28;4991987;28;20189;-76
2023/01/02 09:33:23;;;;;;;10.70;9.77;;;;;;;12.33;92.46;100569.03;4993810;28;20175;-75
2023/01/02 09:35:49;;;;;;;9.33;8.50;;;;;;;12.33;92.48;100566.44;4989811;28;20223;-76
2023/01/02 09:38:14;;;;;;;8.40;7.70;;;;;;;12.32;92.55;100565.59;4987629;28;20204;-76
2023/01/02 09:40:53;;;;;;;6.27;5.77;;;;;;;12.32;92.51;100573.38;4992884;28;20184;-76
2023/01/02 09:43:56;;;;;;;5.53;5.03;;;;;;;12.32;92.79;100575.13;4996878;28;20225;-76
2023/01/02 09:46:59;;;;;;;4.43;3.63;;;;;;;12.31;92.39;100573.41;4956471;28;20193;-78
2023/01/02 09:49:29;;;;;;;4.37;2.87;;;;;;;12.30;92.29;100575.13;4979485;28;20191;-76
2023/01/02 09:51:54;;;;;;;2.70;2.50;;;;;;;12.28;92.21;100589.00;4985602;28;20211;-75
2023/01/02 09:54:28;;;;;;;4.37;3.13;;;;;;;12.25;92.36;100587.28;4980578;28;20295;-77
2023/01/02 09:57:08;;;;;;;2.57;2.30;;;;;;;12.24;92.64;100584.72;4987736;28;20207;-76
2023/01/02 09:59:43;;;;;;;4.27;2.80;;;;;;;12.24;92.43;100592.50;4988051;28;21052;-76
2023/01/02 10:02:25;;;;;;;4.70;2.73;;;;;;;12.23;92.06;100601.16;4987392;28;20191;-77
2023/01/02 10:05:09;;;;;;;4.00;2.60;;;;;;;12.20;91.80;100594.28;4981777;28;20188;-76
2023/01/02 10:07:37;;;;;;;4.37;2.30;;;;;;;12.25;91.39;100596.81;4989295;28;20210;-76
2023/01/02 10:10:30;;;;;;;4.80;2.47;;;;;;;12.32;90.99;100590.69;4988722;28;20199;-74
2023/01/02 10:13:25;;;;;;;4.77;2.30;;;;;;;12.47;90.35;100595.72;4987391;28;20203;-76
2023/01/02 10:15:52;;;;;;;4.60;2.27;;;;;;;12.63;89.22;100604.16;4988290;28;20216;-76
2023/01/02 10:18:26;;;;;;;3.67;2.47;;;;;;;12.72;88.63;100607.50;4982671;28;20220;-76
2023/01/02 10:20:57;;;;;;;3.03;2.07;;;;;;;12.76;88.53;100604.00;4991264;28;20290;-75
2023/01/02 10:23:29;;;;;;;2.50;2.30;;;;;;;12.77;88.64;100605.72;4983739;28;20218;-75
2023/01/02 10:25:59;;;;;;;6.37;4.37;;;;;;;12.75;88.22;100602.28;4982889;28;20975;-76
2023/01/02 10:28:34;;;;;;;7.23;6.00;;;;;;;12.72;88.21;100599.72;4982787;28;20851;-76
2023/01/02 10:31:20;;;;;;;6.27;5.23;;;;;;;12.68;88.55;100609.28;4985091;28;20217;-76
2023/01/02 10:33:59;;;;;;;8.40;6.60;;;;;;;12.64;88.29;100607.59;5007301;28;20169;-75
2023/01/02 10:36:25;;;;;;;8.40;6.50;;;;;;;12.61;88.32;100613.69;4999636;28;20203;-76
2023/01/02 10:38:52;;;;;;;7.77;6.50;;;;;;;12.63;88.16;100616.25;4981042;28;20212;-75
2023/01/02 10:41:17;;;;;;;6.37;4.70;;;;;;;12.63;88.39;100611.94;4980837;28;20200;-76
2023/01/02 10:43:47;;;;;;;5.43;4.40;;;;;;;12.65;88.21;100607.59;4985439;28;20184;-76
2023/01/02 10:46:12;;;;;;;5.23;4.67;;;;;;;12.68;88.16;100609.28;4989101;28;20189;-75
2023/01/02 10:48:38;;;;;;;6.77;4.73;;;;;;;12.70;87.96;100602.34;4966888;28;20793;-76
2023/01/02 10:51:11;;;;;;;5.77;4.30;;;;;;;12.75;87.69;100605.75;4982844;28;20781;-75
2023/01/02 10:53:37;;;;;;;4.47;3.80;;;;;;;12.81;87.31;100605.66;4980391;28;20266;-76
2023/01/02 10:56:06;;;;;;;5.33;4.23;;;;;;;12.88;86.83;100596.03;4982663;28;20695;-76
2023/01/02 10:58:32;;;;;;;4.30;3.90;;;;;;;12.92;87.00;100607.25;4988017;28;20590;-76
2023/01/02 11:01:12;;;;;;;4.80;3.77;;;;;;;12.94;86.65;100603.75;4985762;28;20671;-76
2023/01/02 11:03:38;;;;;;;4.63;3.77;;;;;;;12.98;86.46;100601.97;4987774;28;20196;-76
2023/01/02 11:06:03;;;;;;;3.83;3.23;;;;;;;13.03;86.35;100613.16;4983864;28;20189;-75
2023/01/02 11:08:37;;;;;;;13.53;10.33;;;;;;;13.11;85.87;100597.47;4984097;28;20216;-75
2023/01/02 11:11:13;;;;;;;11.10;9.63;;;;;;;13.17;85.78;100602.56;4982761;28;20195;-75
2023/01/02 11:13:55;;;;;;;11.70;9.90;;;;;;;13.30;85.70;100603.25;4988942;28;20192;-76
2023/01/02 11:16:24;;;;;;;11.50;8.77;;;;;;;13.49;84.86;100603.00;4984076;28;20242;-75
2023/01/02 11:18:54;;;;;;;11.83;8.07;;;;;;;13.67;84.00;100607.91;4984026;28;20212;-76
2023/01/02 11:21:34;;;;;;;10.30;8.30;;;;;;;13.78;83.74;100607.69;4984945;28;20295;-75
2023/01/02 11:24:15;;;;;;;12.60;9.17;;;;;;;13.94;83.00;100597.91;4987901;28;20184;-76
2023/01/02 11:26:42;;;;;;;11.13;7.83;;;;;;;14.03;83.01;100597.72;4990279;28;20172;-76
2023/01/02 11:29:14;;;;;;;7.30;5.57;;;;;;;14.09;81.88;100590.69;4983323;28;20212;-75
2023/01/02 11:31:44;;;;;;;5.80;3.77;;;;;;;14.13;81.07;100585.41;4982791;28;20199;-76
2023/01/02 11:34:19;;;;;;;6.23;2.97;;;;;;;14.23;80.39;100586.09;4984043;28;20197;-75
2023/01/02 11:36:59;;;;;;;5.20;3.10;;;;;;;14.35;80.09;100577.19;4986856;28;20220;-75
2023/01/02 11:39:24;;;;;;;4.97;2.77;;;;;;;14.57;79.45;100577.59;4984737;28;20185;-76